createdAt,value
2022-09-28T00:00:29.953Z,100073.41
2022-09-28T00:03:00.958Z,100073.13
2022-09-28T00:05:31.026Z,100066.84
2022-09-28T00:08:00.891Z,100071.63
2022-09-28T00:10:30.034Z,100040.25
2022-09-28T00:13:01.954Z,100053.34
2022-09-28T00:15:31.065Z,100063.13
2022-09-28T00:18:01.588Z,100066.16
2022-09-28T00:20:30.778Z,100067.25
2022-09-28T00:22:59.991Z,100068.53
2022-09-28T00:25:30.090Z,100072.41
2022-09-28T00:27:59.204Z,100074.28
2022-09-28T00:30:28.422Z,100065.06
2022-09-28T00:32:57.612Z,100057.06
2022-09-28T00:35:28.113Z,100055.47
2022-09-28T00:37:57.250Z,100054.31
2022-09-28T00:40:26.505Z,100049.78
2022-09-28T00:42:55.790Z,100043.69
2022-09-28T00:45:27.071Z,100053.78
2022-09-28T00:48:00.423Z,100039.88
2022-09-28T00:50:35.425Z,100049.81
2022-09-28T00:53:12.930Z,100042.91
2022-09-28T00:55:45.942Z,100052.91
2022-09-28T00:58:20.806Z,100016.66
2022-09-28T01:00:50.813Z,100014.22
2022-09-28T01:03:20.097Z,100060.84
2022-09-28T01:05:52.988Z,100064.25
2022-09-28T01:08:25.020Z,100047.88
2022-09-28T01:10:54.723Z,100054.81
2022-09-28T01:13:26.100Z,100056.69
2022-09-28T01:16:04.783Z,100063.44
2022-09-28T01:18:43.662Z,100060.84
2022-09-28T01:21:20.159Z,100062.63
2022-09-28T01:24:36.238Z,100056.91
2022-09-28T01:27:15.839Z,100042.72
2022-09-28T01:29:58.163Z,100047.41
2022-09-28T01:32:43.825Z,100053.84
2022-09-28T01:35:18.634Z,100061.25
2022-09-28T01:37:53.919Z,100071.81
2022-09-28T01:40:27.580Z,100062.63
2022-09-28T01:43:04.193Z,100059.63
2022-09-28T01:45:46.596Z,100067.34
2022-09-28T01:48:25.221Z,100058.22
2022-09-28T01:50:59.537Z,100069.13
2022-09-28T01:53:38.121Z,100060.16
2022-09-28T01:56:14.516Z,100041.50
2022-09-28T01:58:50.813Z,100058.69
2022-09-28T02:01:26.346Z,100054.53
2022-09-28T02:04:04.818Z,100060.16
2022-09-28T02:06:39.676Z,100062.16
2022-09-28T02:09:12.839Z,100043.88
2022-09-28T02:11:51.621Z,100063.13
2022-09-28T02:14:24.317Z,100049.97
2022-09-28T02:16:55.240Z,100044.75
2022-09-28T02:19:32.922Z,100058.84
2022-09-28T02:22:11.804Z,100059.81
2022-09-28T02:24:47.981Z,100049.38
2022-09-28T02:27:35.437Z,100055.66
2022-09-28T02:30:08.585Z,100046.81
2022-09-28T02:32:44.326Z,100046.81
2022-09-28T02:35:19.295Z,100057.41
2022-09-28T02:37:49.571Z,100044.41
2022-09-28T02:40:22.807Z,100063.00
2022-09-28T02:43:01.159Z,100058.72
2022-09-28T02:45:48.905Z,100054.84
2022-09-28T02:49:00.230Z,100058.25
2022-09-28T02:51:51.204Z,100063.72
2022-09-28T02:55:07.443Z,100059.41
2022-09-28T02:57:53.180Z,100062.25
2022-09-28T03:00:25.141Z,100037.34
2022-09-28T03:03:10.461Z,100053.94
2022-09-28T03:05:48.287Z,100063.09
2022-09-28T03:08:25.014Z,100050.19
2022-09-28T03:11:00.091Z,100064.03
2022-09-28T03:13:31.094Z,100049.72
2022-09-28T03:16:11.668Z,100037.25
2022-09-28T03:18:43.482Z,100056.31
2022-09-28T03:21:14.874Z,100050.34
2022-09-28T03:23:44.878Z,100029.06
2022-09-28T03:26:14.696Z,100040.25
2022-09-28T03:28:44.321Z,100051.88
2022-09-28T03:31:18.801Z,100048.19
2022-09-28T03:33:49.464Z,100047.09
2022-09-28T03:36:18.685Z,100058.19
2022-09-28T03:38:48.315Z,100047.13
2022-09-28T03:41:18.191Z,100073.78
2022-09-28T03:43:47.444Z,100056.44
2022-09-28T03:46:17.075Z,100059.47
2022-09-28T03:48:51.739Z,100041.16
2022-09-28T03:51:21.057Z,100052.25
2022-09-28T03:53:50.246Z,100036.81
2022-09-28T03:56:19.567Z,100053.13
2022-09-28T03:58:49.196Z,100058.59
2022-09-28T04:01:19.315Z,100062.63
2022-09-28T04:03:56.336Z,100046.56
2022-09-28T04:06:26.666Z,100058.31
2022-09-28T04:08:56.157Z,100060.66
2022-09-28T04:11:25.538Z,100063.56
2022-09-28T04:13:55.237Z,100061.00
2022-09-28T04:16:25.868Z,100063.69
2022-09-28T04:19:08.016Z,100068.06
2022-09-28T04:21:56.800Z,100065.72
2022-09-28T04:24:26.675Z,100067.72
2022-09-28T04:27:16.594Z,100068.03
2022-09-28T04:29:44.856Z,100070.28
2022-09-28T04:32:16.216Z,100064.94
2022-09-28T04:34:46.810Z,100068.81
2022-09-28T04:37:16.224Z,100072.06
2022-09-28T04:39:48.538Z,100060.66
2022-09-28T04:42:20.910Z,100065.00
2022-09-28T04:44:51.979Z,100078.16
2022-09-28T04:47:21.287Z,100077.50
2022-09-28T04:50:03.874Z,100068.94
2022-09-28T04:52:38.668Z,100074.97
2022-09-28T04:55:12.694Z,100073.50
2022-09-28T04:57:41.984Z,100071.38
2022-09-28T05:00:13.208Z,100058.84
2022-09-28T05:02:47.057Z,100020.06
2022-09-28T05:05:50.296Z,100069.00
2022-09-28T05:08:39.708Z,100060.06
2022-09-28T05:11:12.800Z,100066.03
2022-09-28T05:13:45.450Z,100069.56
2022-09-28T05:16:17.624Z,100064.66
2022-09-28T05:19:07.515Z,100057.88
2022-09-28T05:21:38.267Z,100077.97
2022-09-28T05:24:08.471Z,100065.56
2022-09-28T05:26:40.319Z,100065.75
2022-09-28T05:29:11.915Z,100075.88
2022-09-28T05:31:43.898Z,100062.09
2022-09-28T05:34:19.099Z,100051.69
2022-09-28T05:36:49.799Z,100077.22
2022-09-28T05:39:20.379Z,100060.84
2022-09-28T05:41:49.777Z,100053.78
2022-09-28T05:44:19.031Z,100066.47
2022-09-28T05:46:49.900Z,100063.09
2022-09-28T05:49:19.734Z,100076.59
2022-09-28T05:51:51.305Z,100059.56
2022-09-28T05:54:20.663Z,100075.16
2022-09-28T05:56:50.045Z,100057.16
2022-09-28T05:59:19.413Z,100081.25
2022-09-28T06:01:48.585Z,100071.28
2022-09-28T06:04:18.622Z,100068.91
2022-09-28T06:06:51.635Z,100064.56
2022-09-28T06:09:25.680Z,100072.72
2022-09-28T06:12:04.083Z,100074.03
2022-09-28T06:14:57.132Z,100073.09
2022-09-28T06:17:26.391Z,100076.28
2022-09-28T06:20:15.698Z,100084.66
2022-09-28T06:23:06.541Z,100083.72
2022-09-28T06:25:35.909Z,100081.94
2022-09-28T06:28:07.929Z,100070.88
2022-09-28T06:30:39.223Z,100072.47
2022-09-28T06:33:15.127Z,100083.88
2022-09-28T06:35:44.761Z,100074.72
2022-09-28T06:38:15.345Z,100087.41
2022-09-28T06:40:45.064Z,100083.22
2022-09-28T06:43:16.236Z,100100.41
2022-09-28T06:46:12.858Z,100087.56
2022-09-28T06:49:00.783Z,100100.41
2022-09-28T06:52:06.202Z,100099.00
2022-09-28T06:54:55.391Z,100103.66
2022-09-28T06:57:31.062Z,100099.78
2022-09-28T07:00:00.295Z,100101.72
2022-09-28T07:02:29.632Z,100100.91
2022-09-28T07:05:19.934Z,100103.00
2022-09-28T07:07:59.203Z,100100.41
2022-09-28T07:10:47.111Z,100094.63
2022-09-28T07:13:49.925Z,100103.06
2022-09-28T07:16:26.766Z,100112.94
2022-09-28T07:18:57.751Z,100118.38
2022-09-28T07:21:30.187Z,100107.22
2022-09-28T07:24:03.463Z,100110.19
2022-09-28T07:26:52.858Z,100107.22
2022-09-28T07:29:38.317Z,100114.66
2022-09-28T07:32:37.566Z,100099.66
2022-09-28T07:35:25.257Z,100116.72
2022-09-28T07:38:01.568Z,100077.38
2022-09-28T07:40:49.805Z,100096.47
2022-09-28T07:43:22.021Z,100101.66
2022-09-28T07:45:55.830Z,100106.03
2022-09-28T07:48:26.795Z,100105.56
2022-09-28T07:51:17.914Z,100081.66
2022-09-28T07:53:56.959Z,100099.25
2022-09-28T07:56:41.037Z,100104.56
2022-09-28T07:59:34.377Z,100101.66
2022-09-28T08:02:22.593Z,100122.00
2022-09-28T08:04:52.354Z,100125.97
2022-09-28T08:07:24.257Z,100080.22
2022-09-28T08:10:01.221Z,100118.28
2022-09-28T08:12:30.393Z,100112.88
2022-09-28T08:15:19.266Z,100119.47
2022-09-28T08:17:54.898Z,100127.38
2022-09-28T08:20:43.032Z,100131.66
2022-09-28T08:23:12.537Z,100132.38
2022-09-28T08:25:49.097Z,100127.59
2022-09-28T08:28:20.157Z,100125.88
2022-09-28T08:30:54.611Z,100123.34
2022-09-28T08:33:43.194Z,100123.81
2022-09-28T08:36:30.901Z,100123.94
2022-09-28T08:39:20.114Z,100119.91
2022-09-28T08:42:34.573Z,100121.09
2022-09-28T08:45:23.346Z,100112.84
2022-09-28T08:48:40.908Z,100108.13
2022-09-28T08:51:21.273Z,100116.84
2022-09-28T08:54:30.112Z,100115.25
2022-09-28T08:57:10.668Z,100106.66
2022-09-28T08:59:51.409Z,100124.53
2022-09-28T09:02:33.855Z,100101.19
2022-09-28T09:05:25.782Z,100117.19
2022-09-28T09:08:25.235Z,100118.19
2022-09-28T09:11:02.154Z,100124.78
2022-09-28T09:14:22.924Z,100130.25
2022-09-28T09:17:02.718Z,100111.19
2022-09-28T09:19:55.231Z,100104.38
2022-09-28T09:23:00.813Z,100106.31
2022-09-28T09:25:39.428Z,100103.16
2022-09-28T09:29:03.370Z,100103.66
2022-09-28T09:32:05.440Z,100087.69
2022-09-28T09:35:17.638Z,100108.19
2022-09-28T09:38:31.269Z,100106.19
2022-09-28T09:41:40.474Z,100101.19
2022-09-28T09:45:05.909Z,100101.63
2022-09-28T09:48:02.049Z,100096.28
2022-09-28T09:50:40.054Z,100098.97
2022-09-28T09:53:24.885Z,100096.97
2022-09-28T09:55:59.559Z,100082.84
2022-09-28T09:58:51.515Z,100092.59
2022-09-28T10:01:39.874Z,100099.06
2022-09-28T10:04:25.915Z,100084.97
2022-09-28T10:07:04.712Z,100094.28
2022-09-28T10:09:42.550Z,100094.03
2022-09-28T10:12:35.226Z,100094.81
2022-09-28T10:15:06.786Z,100091.34
2022-09-28T10:17:46.002Z,100085.00
2022-09-28T10:20:38.352Z,100090.72
2022-09-28T10:23:22.826Z,100069.44
2022-09-28T10:25:58.118Z,100095.69
2022-09-28T10:28:46.653Z,100085.91
2022-09-28T10:31:36.344Z,100093.13
2022-09-28T10:34:09.148Z,100087.44
2022-09-28T10:36:51.413Z,100091.28
2022-09-28T10:39:36.734Z,100080.16
2022-09-28T10:42:11.370Z,100077.31
2022-09-28T10:44:54.751Z,100072.78
2022-09-28T10:47:38.514Z,100074.81
2022-09-28T10:50:23.775Z,100066.22
2022-09-28T10:53:19.193Z,100069.34
2022-09-28T10:56:22.202Z,100081.59
2022-09-28T10:59:02.212Z,100068.19
2022-09-28T11:01:44.915Z,100073.22
2022-09-28T11:04:23.842Z,100076.53
2022-09-28T11:09:33.075Z,100061.19
2022-09-28T11:12:15.453Z,100062.31
2022-09-28T11:14:48.897Z,100067.72
2022-09-28T11:17:29.467Z,100059.47
2022-09-28T11:20:01.942Z,100054.03
2022-09-28T11:22:42.608Z,100052.53
2022-09-28T11:25:24.987Z,100040.06
2022-09-28T11:28:04.862Z,100052.84
2022-09-28T11:30:46.242Z,100052.75
2022-09-28T11:33:46.274Z,100046.91
2022-09-28T11:37:21.341Z,100055.59
2022-09-28T11:40:02.220Z,100045.91
2022-09-28T11:42:48.074Z,100040.97
2022-09-28T11:45:48.181Z,100037.00
2022-09-28T11:48:26.823Z,100026.66
2022-09-28T11:51:03.883Z,100040.06
2022-09-28T11:53:40.689Z,100034.41
2022-09-28T11:56:25.398Z,100032.19
2022-09-28T11:59:04.066Z,100026.72
2022-09-28T12:01:49.990Z,100021.50
2022-09-28T12:04:35.480Z,100016.13
2022-09-28T12:07:10.273Z,100015.25
2022-09-28T12:09:47.394Z,100026.84
2022-09-28T12:12:31.396Z,100015.09
2022-09-28T12:15:06.980Z,100025.50
2022-09-28T12:17:43.783Z,100021.06
2022-09-28T12:20:23.224Z,100024.38
2022-09-28T12:23:08.453Z,100027.34
2022-09-28T12:25:46.805Z,100027.81
2022-09-28T12:28:26.858Z,100020.09
2022-09-28T12:30:59.983Z,100017.72
2022-09-28T12:33:29.152Z,100022.44
2022-09-28T12:36:10.828Z,100028.63
2022-09-28T12:39:18.095Z,100029.63
2022-09-28T12:42:06.376Z,100029.97
2022-09-28T12:45:02.430Z,100036.66
2022-09-28T12:48:02.377Z,100023.63
2022-09-28T12:50:44.745Z,100020.81
2022-09-28T12:53:35.832Z,100020.78
2022-09-28T12:56:12.332Z,100015.09
2022-09-28T12:59:01.080Z,100008.03
2022-09-28T13:01:54.729Z,100019.38
2022-09-28T13:04:48.564Z,100019.72
2022-09-28T13:07:27.626Z,100023.84
2022-09-28T13:10:14.512Z,100005.59
2022-09-28T13:12:59.439Z,100021.00
2022-09-28T13:15:39.557Z,100025.00
2022-09-28T13:18:20.616Z,100026.97
2022-09-28T13:21:15.826Z,100010.50
2022-09-28T13:23:48.606Z,100009.16
2022-09-28T13:26:27.256Z,100001.31
2022-09-28T13:29:04.976Z,100005.94
2022-09-28T13:31:37.184Z,100020.69
2022-09-28T13:34:22.633Z,100017.66
2022-09-28T13:37:24.201Z,100023.22
2022-09-28T13:39:56.600Z,100022.44
2022-09-28T13:43:19.703Z,100036.50
2022-09-28T13:45:59.125Z,100025.69
2022-09-28T13:48:46.155Z,100027.47
2022-09-28T13:51:38.205Z,100010.78
2022-09-28T13:54:31.598Z,100012.84
2022-09-28T13:57:14.552Z,100014.81
2022-09-28T14:00:01.162Z,100027.53
2022-09-28T14:02:37.809Z,100048.88
2022-09-28T14:05:35.203Z,100064.22
2022-09-28T14:08:32.251Z,100058.53
2022-09-28T14:11:44.174Z,100050.50
2022-09-28T14:14:49.208Z,100036.13
2022-09-28T14:18:08.514Z,100024.13
2022-09-28T14:20:38.723Z,99996.50
2022-09-28T14:23:58.951Z,100022.94
2022-09-28T14:27:14.206Z,100008.31
2022-09-28T14:29:43.408Z,99987.72
2022-09-28T14:32:37.476Z,100012.81
2022-09-28T14:35:18.948Z,100018.69
2022-09-28T14:38:08.924Z,100007.47
2022-09-28T14:41:10.684Z,100016.38
2022-09-28T14:44:05.052Z,100031.38
2022-09-28T14:46:45.769Z,100006.25
2022-09-28T14:50:00.681Z,100017.13
2022-09-28T14:52:46.002Z,100020.75
2022-09-28T14:55:18.932Z,100014.44
2022-09-28T14:57:56.641Z,100021.19
2022-09-28T15:00:30.426Z,100010.84
2022-09-28T15:03:06.807Z,100017.22
2022-09-28T15:05:47.325Z,100007.69
2022-09-28T15:08:20.364Z,100006.88
2022-09-28T15:10:51.876Z,100010.06
2022-09-28T15:13:26.251Z,100009.66
2022-09-28T15:16:01.006Z,100010.44
2022-09-28T15:19:24.493Z,99999.59
2022-09-28T15:21:55.180Z,100008.91
2022-09-28T15:24:32.949Z,100010.41
2022-09-28T15:27:03.167Z,99989.09
2022-09-28T15:29:33.483Z,100005.28
2022-09-28T15:32:04.179Z,100006.56
2022-09-28T15:34:54.841Z,100007.56
2022-09-28T15:37:29.241Z,99997.75
2022-09-28T15:40:00.314Z,99988.56
2022-09-28T15:42:36.323Z,100008.00
2022-09-28T15:45:26.864Z,99994.81
2022-09-28T15:48:27.353Z,100007.44
2022-09-28T15:51:10.967Z,99999.88
2022-09-28T15:53:52.561Z,100002.78
2022-09-28T15:56:21.949Z,100003.06
2022-09-28T15:59:20.099Z,100007.78
2022-09-28T16:01:50.027Z,100003.03
2022-09-28T16:04:41.561Z,99995.03
2022-09-28T16:07:47.132Z,99986.50
2022-09-28T16:10:37.165Z,99983.06
2022-09-28T16:13:20.207Z,99997.41
2022-09-28T16:15:59.874Z,99989.44
2022-09-28T16:18:31.264Z,99991.00
2022-09-28T16:21:28.346Z,100005.69
2022-09-28T16:23:58.344Z,99995.88
2022-09-28T16:26:33.904Z,99993.13
2022-09-28T16:29:10.830Z,99997.91
2022-09-28T16:31:44.101Z,100002.13
2022-09-28T16:34:21.328Z,99987.09
2022-09-28T16:36:52.930Z,100006.84
2022-09-28T16:39:22.278Z,100001.91
2022-09-28T16:42:01.866Z,100003.16
2022-09-28T16:44:32.789Z,100007.63
2022-09-28T16:47:01.974Z,99999.91
2022-09-28T16:49:32.346Z,100013.88
2022-09-28T16:52:02.483Z,100005.00
2022-09-28T16:54:49.018Z,100007.13
2022-09-28T16:57:19.626Z,100020.47
2022-09-28T16:59:48.769Z,100020.78
2022-09-28T17:02:45.294Z,100025.06
2022-09-28T17:05:10.318Z,100021.53
2022-09-28T17:07:40.328Z,100024.28
2022-09-28T17:10:19.312Z,100031.81
2022-09-28T17:12:50.631Z,100022.84
2022-09-28T17:15:19.870Z,100028.72
2022-09-28T17:17:49.411Z,100016.28
2022-09-28T17:20:23.160Z,100021.00
2022-09-28T17:22:52.436Z,100030.69
2022-09-28T17:25:23.053Z,100029.16
2022-09-28T17:27:56.377Z,100028.63
2022-09-28T17:30:25.886Z,100036.41
2022-09-28T17:32:55.122Z,100035.25
2022-09-28T17:35:25.392Z,100039.81
2022-09-28T17:37:55.072Z,100039.28
2022-09-28T17:40:28.509Z,100035.34
2022-09-28T17:43:00.600Z,100048.19
2022-09-28T17:45:31.359Z,100044.00
2022-09-28T17:48:01.179Z,100039.84
2022-09-28T17:50:34.147Z,100039.03
2022-09-28T17:53:06.212Z,100050.69
2022-09-28T17:55:37.338Z,100033.16
2022-09-28T17:58:18.469Z,100043.75
2022-09-28T18:00:50.059Z,100052.00
2022-09-28T18:03:21.472Z,100039.50
2022-09-28T18:06:02.949Z,100025.22
2022-09-28T18:08:32.358Z,100046.50
2022-09-28T18:11:02.942Z,100060.44
2022-09-28T18:13:33.605Z,100051.22
2022-09-28T18:16:03.061Z,100051.94
2022-09-28T18:18:36.808Z,100055.81
2022-09-28T18:21:06.363Z,100046.13
2022-09-28T18:23:37.795Z,100049.78
2022-09-28T18:26:11.881Z,100060.00
2022-09-28T18:28:43.295Z,100050.94
2022-09-28T18:31:16.278Z,100063.53
2022-09-28T18:33:50.319Z,100059.88
2022-09-28T18:36:19.508Z,100058.19
2022-09-28T18:38:48.648Z,100064.38
2022-09-28T18:41:17.959Z,100057.22
2022-09-28T18:43:51.775Z,100056.22
2022-09-28T18:46:21.081Z,100061.59
2022-09-28T18:48:50.268Z,100066.91
2022-09-28T18:51:20.633Z,100063.19
2022-09-28T18:53:50.188Z,100064.34
2022-09-28T18:56:21.161Z,100058.84
2022-09-28T18:58:52.684Z,100062.75
2022-09-28T19:01:29.903Z,100079.59
2022-09-28T19:04:01.365Z,100075.13
2022-09-28T19:06:31.866Z,100082.38
2022-09-28T19:09:02.013Z,100078.41
2022-09-28T19:11:31.155Z,100085.84
2022-09-28T19:14:03.230Z,100081.47
2022-09-28T19:16:34.881Z,100087.44
2022-09-28T19:19:04.148Z,100095.47
2022-09-28T19:21:33.731Z,100097.28
2022-09-28T19:24:04.129Z,100091.34
2022-09-28T19:26:34.304Z,100094.66
2022-09-28T19:29:04.861Z,100096.72
2022-09-28T19:31:34.847Z,100111.81
2022-09-28T19:34:04.284Z,100105.41
2022-09-28T19:36:33.832Z,100112.84
2022-09-28T19:39:04.060Z,100106.00
2022-09-28T19:41:51.253Z,100103.03
2022-09-28T19:44:25.807Z,100122.13
2022-09-28T19:46:57.607Z,100127.63
2022-09-28T19:49:33.130Z,100118.34
2022-09-28T19:52:18.466Z,100112.28
2022-09-28T19:54:56.840Z,100109.41
2022-09-28T19:57:28.772Z,100115.38
2022-09-28T20:00:03.149Z,100125.88
2022-09-28T20:02:36.311Z,100131.38
2022-09-28T20:05:06.201Z,100121.63
2022-09-28T20:07:36.297Z,100133.09
2022-09-28T20:10:06.489Z,100131.81
2022-09-28T20:12:35.747Z,100129.75
2022-09-28T20:15:10.768Z,100129.50
2022-09-28T20:17:40.049Z,100134.09
2022-09-28T20:20:10.115Z,100129.91
2022-09-28T20:22:41.239Z,100127.81
2022-09-28T20:25:11.195Z,100128.25
2022-09-28T20:27:40.455Z,100127.66
2022-09-28T20:30:13.123Z,100131.09
2022-09-28T20:32:45.066Z,100127.63
2022-09-28T20:35:30.313Z,100146.06
2022-09-28T20:38:08.997Z,100137.59
2022-09-28T20:40:40.289Z,100142.94
2022-09-28T20:43:12.072Z,100151.06
2022-09-28T20:45:43.073Z,100150.91
2022-09-28T20:48:12.264Z,100143.72
2022-09-28T20:50:42.809Z,100157.53
2022-09-28T20:53:12.256Z,100156.41
2022-09-28T20:55:41.593Z,100152.41
2022-09-28T20:58:10.679Z,100156.28
2022-09-28T21:00:41.512Z,100153.38
2022-09-28T21:03:10.781Z,100145.25
2022-09-28T21:05:40.101Z,100150.06
2022-09-28T21:08:10.311Z,100146.19
2022-09-28T21:10:44.734Z,100141.09
2022-09-28T21:13:13.986Z,100156.22
2022-09-28T21:15:44.642Z,100164.66
2022-09-28T21:18:13.997Z,100168.66
2022-09-28T21:20:47.549Z,100158.91
2022-09-28T21:23:18.255Z,100137.69
2022-09-28T21:25:48.917Z,100160.09
2022-09-28T21:28:19.185Z,100173.41
2022-09-28T21:30:53.363Z,100173.06
2022-09-28T21:33:22.588Z,100167.47
2022-09-28T21:35:52.042Z,100161.38
2022-09-28T21:38:21.406Z,100165.69
2022-09-28T21:40:57.071Z,100178.13
2022-09-28T21:43:27.371Z,100173.66
2022-09-28T21:45:58.943Z,100168.69
2022-09-28T21:48:29.979Z,100178.19
2022-09-28T21:51:00.757Z,100180.25
2022-09-28T21:53:32.254Z,100162.34
2022-09-28T21:56:03.039Z,100162.88
2022-09-28T21:58:34.979Z,100183.41
2022-09-28T22:01:08.889Z,100184.25
2022-09-28T22:03:38.800Z,100180.66
2022-09-28T22:06:09.501Z,100184.53
2022-09-28T22:08:39.165Z,100184.72
2022-09-28T22:11:11.564Z,100187.84
2022-09-28T22:13:44.329Z,100201.63
2022-09-28T22:16:15.761Z,100186.03
2022-09-28T22:18:45.852Z,100200.00
2022-09-28T22:21:19.638Z,100197.78
2022-09-28T22:23:49.914Z,100182.09
2022-09-28T22:26:21.760Z,100191.72
2022-09-28T22:28:53.777Z,100187.69
2022-09-28T22:31:27.341Z,100194.63
2022-09-28T22:33:57.080Z,100199.31
2022-09-28T22:36:26.971Z,100205.25
2022-09-28T22:38:57.016Z,100209.75
2022-09-28T22:41:26.526Z,100206.53
2022-09-28T22:43:56.206Z,100208.97
2022-09-28T22:46:29.697Z,100195.16
2022-09-28T22:49:00.432Z,100204.00
2022-09-28T22:51:31.498Z,100203.69
2022-09-28T22:54:01.384Z,100205.97
2022-09-28T22:56:31.515Z,100205.16
2022-09-28T22:59:01.293Z,100205.81
2022-09-28T23:01:32.115Z,100208.72
2022-09-28T23:04:01.726Z,100206.81
2022-09-28T23:06:31.477Z,100196.38
2022-09-28T23:09:01.150Z,100208.59
2022-09-28T23:11:30.736Z,100204.88
2022-09-28T23:14:01.041Z,100211.47
2022-09-28T23:16:31.702Z,100211.00
2022-09-28T23:19:00.941Z,100215.53
2022-09-28T23:21:30.258Z,100221.84
2022-09-28T23:24:02.286Z,100214.44
2022-09-28T23:26:34.434Z,100210.09
2022-09-28T23:29:03.751Z,100218.91
2022-09-28T23:31:34.904Z,100227.59
2022-09-28T23:34:06.903Z,100224.25
2022-09-28T23:36:36.188Z,100202.84
2022-09-28T23:39:05.662Z,100221.03
2022-09-28T23:41:34.762Z,100225.03
2022-09-28T23:44:04.444Z,100214.91
2022-09-28T23:46:35.212Z,100210.59
2022-09-28T23:49:04.488Z,100210.72
2022-09-28T23:51:33.712Z,100211.53
2022-09-28T23:54:05.262Z,100211.19
2022-09-28T23:56:34.626Z,100198.88
2022-09-28T23:59:03.770Z,100208.97
